sensor_id;sensor_type;location;lat;lon;timestamp;P1;durP1;ratioP1;P2;durP2;ratioP2
51525;SDS011;37611;51.794;21.590;2022-11-14T00:03:19;18.70;;;15.70;;
51525;SDS011;37611;51.794;21.590;2022-11-14T00:07:21;21.90;;;16.50;;
51525;SDS011;37611;51.794;21.590;2022-11-14T00:11:23;22.90;;;17.40;;
51525;SDS011;37611;51.794;21.590;2022-11-14T00:15:25;23.30;;;16.30;;
51525;SDS011;37611;51.794;21.590;2022-11-14T00:19:27;23.80;;;16.50;;
51525;SDS011;37611;51.794;21.590;2022-11-14T00:23:28;26.90;;;17.00;;
51525;SDS011;37611;51.794;21.590;2022-11-14T00:27:30;24.40;;;17.70;;
51525;SDS011;37611;51.794;21.590;2022-11-14T00:31:32;25.40;;;18.90;;
51525;SDS011;37611;51.794;21.590;2022-11-14T00:35:34;26.90;;;20.20;;
51525;SDS011;37611;51.794;21.590;2022-11-14T00:39:35;27.00;;;18.30;;
51525;SDS011;37611;51.794;21.590;2022-11-14T00:43:37;24.80;;;18.60;;
51525;SDS011;37611;51.794;21.590;2022-11-14T00:47:39;28.40;;;21.50;;
51525;SDS011;37611;51.794;21.590;2022-11-14T00:51:41;24.90;;;19.50;;
51525;SDS011;37611;51.794;21.590;2022-11-14T00:55:43;27.40;;;19.10;;
51525;SDS011;37611;51.794;21.590;2022-11-14T00:59:44;31.40;;;20.20;;
51525;SDS011;37611;51.794;21.590;2022-11-14T01:03:47;25.30;;;19.10;;
51525;SDS011;37611;51.794;21.590;2022-11-14T01:07:49;24.50;;;18.30;;
51525;SDS011;37611;51.794;21.590;2022-11-14T01:11:51;23.80;;;17.90;;
51525;SDS011;37611;51.794;21.590;2022-11-14T01:15:53;26.90;;;19.60;;
51525;SDS011;37611;51.794;21.590;2022-11-14T01:19:55;27.20;;;19.50;;
51525;SDS011;37611;51.794;21.590;2022-11-14T01:23:57;24.90;;;18.00;;
51525;SDS011;37611;51.794;21.590;2022-11-14T01:27:59;25.80;;;18.30;;
51525;SDS011;37611;51.794;21.590;2022-11-14T01:32:00;23.30;;;17.60;;
51525;SDS011;37611;51.794;21.590;2022-11-14T01:36:02;26.50;;;18.90;;
51525;SDS011;37611;51.794;21.590;2022-11-14T01:40:04;30.00;;;22.00;;
51525;SDS011;37611;51.794;21.590;2022-11-14T01:44:11;27.50;;;19.70;;
51525;SDS011;37611;51.794;21.590;2022-11-14T01:48:20;27.70;;;18.50;;
51525;SDS011;37611;51.794;21.590;2022-11-14T01:52:43;26.90;;;19.00;;
51525;SDS011;37611;51.794;21.590;2022-11-14T01:56:48;28.70;;;20.50;;
51525;SDS011;37611;51.794;21.590;2022-11-14T02:00:55;28.40;;;20.80;;
51525;SDS011;37611;51.794;21.590;2022-11-14T02:05:08;29.70;;;20.00;;
51525;SDS011;37611;51.794;21.590;2022-11-14T02:09:12;28.50;;;19.00;;
51525;SDS011;37611;51.794;21.590;2022-11-14T02:13:13;32.80;;;21.50;;
51525;SDS011;37611;51.794;21.590;2022-11-14T02:17:15;26.10;;;19.70;;
51525;SDS011;37611;51.794;21.590;2022-11-14T02:21:18;25.00;;;18.00;;
51525;SDS011;37611;51.794;21.590;2022-11-14T02:25:20;29.10;;;19.10;;
51525;SDS011;37611;51.794;21.590;2022-11-14T02:29:22;27.70;;;19.60;;
51525;SDS011;37611;51.794;21.590;2022-11-14T02:33:24;26.00;;;18.10;;
51525;SDS011;37611;51.794;21.590;2022-11-14T02:37:26;26.00;;;18.20;;
51525;SDS011;37611;51.794;21.590;2022-11-14T02:41:28;24.00;;;18.00;;
51525;SDS011;37611;51.794;21.590;2022-11-14T02:45:29;23.20;;;17.10;;
51525;SDS011;37611;51.794;21.590;2022-11-14T02:49:31;24.50;;;17.80;;
51525;SDS011;37611;51.794;21.590;2022-11-14T02:53:33;27.50;;;17.90;;
51525;SDS011;37611;51.794;21.590;2022-11-14T02:57:35;25.40;;;17.30;;
51525;SDS011;37611;51.794;21.590;2022-11-14T03:01:37;27.70;;;18.30;;
51525;SDS011;37611;51.794;21.590;2022-11-14T03:05:38;25.20;;;19.00;;
51525;SDS011;37611;51.794;21.590;2022-11-14T03:09:40;26.20;;;20.00;;
51525;SDS011;37611;51.794;21.590;2022-11-14T03:13:42;28.00;;;20.40;;
51525;SDS011;37611;51.794;21.590;2022-11-14T03:17:44;26.80;;;19.60;;
51525;SDS011;37611;51.794;21.590;2022-11-14T03:21:45;28.90;;;20.00;;
51525;SDS011;37611;51.794;21.590;2022-11-14T03:25:47;27.60;;;20.40;;
51525;SDS011;37611;51.794;21.590;2022-11-14T03:29:49;26.60;;;20.60;;
51525;SDS011;37611;51.794;21.590;2022-11-14T03:33:51;27.90;;;19.50;;
51525;SDS011;37611;51.794;21.590;2022-11-14T03:37:53;26.60;;;19.90;;
51525;SDS011;37611;51.794;21.590;2022-11-14T03:41:55;26.00;;;18.60;;
51525;SDS011;37611;51.794;21.590;2022-11-14T03:46:00;22.50;;;15.50;;
51525;SDS011;37611;51.794;21.590;2022-11-14T03:50:02;23.40;;;15.70;;
51525;SDS011;37611;51.794;21.590;2022-11-14T03:54:05;21.50;;;15.70;;
51525;SDS011;37611;51.794;21.590;2022-11-14T03:58:07;23.80;;;16.50;;
51525;SDS011;37611;51.794;21.590;2022-11-14T04:02:08;19.70;;;14.60;;
51525;SDS011;37611;51.794;21.590;2022-11-14T04:06:10;17.30;;;12.80;;
51525;SDS011;37611;51.794;21.590;2022-11-14T04:10:12;21.10;;;15.40;;
51525;SDS011;37611;51.794;21.590;2022-11-14T04:14:14;21.20;;;14.60;;
51525;SDS011;37611;51.794;21.590;2022-11-14T04:18:15;22.40;;;14.20;;
51525;SDS011;37611;51.794;21.590;2022-11-14T04:22:17;16.20;;;12.80;;
51525;SDS011;37611;51.794;21.590;2022-11-14T04:26:19;17.90;;;13.60;;
51525;SDS011;37611;51.794;21.590;2022-11-14T04:30:20;17.90;;;13.60;;
51525;SDS011;37611;51.794;21.590;2022-11-14T04:34:22;19.70;;;13.40;;
51525;SDS011;37611;51.794;21.590;2022-11-14T04:38:24;15.30;;;12.10;;
51525;SDS011;37611;51.794;21.590;2022-11-14T04:42:26;18.70;;;11.70;;
51525;SDS011;37611;51.794;21.590;2022-11-14T04:46:27;15.80;;;12.30;;
51525;SDS011;37611;51.794;21.590;2022-11-14T04:50:29;14.90;;;11.70;;
51525;SDS011;37611;51.794;21.590;2022-11-14T04:54:31;15.10;;;11.50;;
51525;SDS011;37611;51.794;21.590;2022-11-14T04:58:33;16.10;;;12.00;;
51525;SDS011;37611;51.794;21.590;2022-11-14T05:02:34;19.70;;;14.30;;
51525;SDS011;37611;51.794;21.590;2022-11-14T05:06:36;17.90;;;14.00;;
51525;SDS011;37611;51.794;21.590;2022-11-14T05:10:41;16.70;;;13.10;;
51525;SDS011;37611;51.794;21.590;2022-11-14T05:14:44;73.90;;;49.20;;
51525;SDS011;37611;51.794;21.590;2022-11-14T05:18:46;51.80;;;46.40;;
51525;SDS011;37611;51.794;21.590;2022-11-14T05:22:51;38.50;;;30.30;;
51525;SDS011;37611;51.794;21.590;2022-11-14T05:26:54;31.30;;;27.00;;
51525;SDS011;37611;51.794;21.590;2022-11-14T05:35:07;21.10;;;13.70;;
51525;SDS011;37611;51.794;21.590;2022-11-14T05:39:09;18.10;;;11.60;;
51525;SDS011;37611;51.794;21.590;2022-11-14T05:43:11;13.80;;;11.80;;
51525;SDS011;37611;51.794;21.590;2022-11-14T05:47:12;20.50;;;16.50;;
51525;SDS011;37611;51.794;21.590;2022-11-14T05:51:14;17.90;;;14.30;;
51525;SDS011;37611;51.794;21.590;2022-11-14T05:55:16;13.00;;;10.70;;
51525;SDS011;37611;51.794;21.590;2022-11-14T05:59:17;20.20;;;13.60;;
51525;SDS011;37611;51.794;21.590;2022-11-14T06:03:19;14.20;;;10.50;;
51525;SDS011;37611;51.794;21.590;2022-11-14T06:07:21;11.10;;;9.10;;
51525;SDS011;37611;51.794;21.590;2022-11-14T06:11:23;20.20;;;12.70;;
51525;SDS011;37611;51.794;21.590;2022-11-14T06:15:24;16.90;;;12.20;;
51525;SDS011;37611;51.794;21.590;2022-11-14T06:19:26;19.80;;;13.60;;
51525;SDS011;37611;51.794;21.590;2022-11-14T06:23:28;14.90;;;10.30;;
51525;SDS011;37611;51.794;21.590;2022-11-14T06:27:30;14.30;;;10.90;;
51525;SDS011;37611;51.794;21.590;2022-11-14T06:31:32;16.30;;;11.10;;
51525;SDS011;37611;51.794;21.590;2022-11-14T06:35:34;20.60;;;12.10;;
51525;SDS011;37611;51.794;21.590;2022-11-14T06:39:37;18.10;;;12.70;;
51525;SDS011;37611;51.794;21.590;2022-11-14T06:43:39;17.10;;;11.10;;
51525;SDS011;37611;51.794;21.590;2022-11-14T06:47:43;27.20;;;15.60;;
51525;SDS011;37611;51.794;21.590;2022-11-14T06:51:44;24.80;;;16.90;;
51525;SDS011;37611;51.794;21.590;2022-11-14T06:55:56;15.10;;;12.20;;
51525;SDS011;37611;51.794;21.590;2022-11-14T07:00:00;20.80;;;15.20;;
51525;SDS011;37611;51.794;21.590;2022-11-14T07:04:02;18.00;;;12.40;;
51525;SDS011;37611;51.794;21.590;2022-11-14T07:08:04;13.00;;;9.50;;
51525;SDS011;37611;51.794;21.590;2022-11-14T07:12:06;13.00;;;9.10;;
51525;SDS011;37611;51.794;21.590;2022-11-14T07:16:08;10.80;;;7.30;;
51525;SDS011;37611;51.794;21.590;2022-11-14T07:20:10;8.20;;;6.80;;
51525;SDS011;37611;51.794;21.590;2022-11-14T07:24:12;11.80;;;8.70;;
51525;SDS011;37611;51.794;21.590;2022-11-14T07:28:14;13.70;;;10.50;;
51525;SDS011;37611;51.794;21.590;2022-11-14T07:32:15;18.60;;;14.00;;
51525;SDS011;37611;51.794;21.590;2022-11-14T07:36:17;28.00;;;18.70;;
51525;SDS011;37611;51.794;21.590;2022-11-14T07:40:19;8.80;;;7.90;;
51525;SDS011;37611;51.794;21.590;2022-11-14T07:44:21;13.20;;;10.10;;
51525;SDS011;37611;51.794;21.590;2022-11-14T07:48:22;20.60;;;11.50;;
51525;SDS011;37611;51.794;21.590;2022-11-14T07:52:24;9.70;;;5.90;;
51525;SDS011;37611;51.794;21.590;2022-11-14T07:56:26;23.20;;;15.20;;
51525;SDS011;37611;51.794;21.590;2022-11-14T08:00:28;10.70;;;6.70;;
51525;SDS011;37611;51.794;21.590;2022-11-14T08:04:29;12.60;;;8.10;;
51525;SDS011;37611;51.794;21.590;2022-11-14T08:08:31;11.40;;;8.40;;
51525;SDS011;37611;51.794;21.590;2022-11-14T08:12:33;11.90;;;6.40;;
51525;SDS011;37611;51.794;21.590;2022-11-14T08:16:35;10.90;;;7.50;;
51525;SDS011;37611;51.794;21.590;2022-11-14T08:20:37;14.80;;;10.30;;
51525;SDS011;37611;51.794;21.590;2022-11-14T08:24:38;22.10;;;15.40;;
51525;SDS011;37611;51.794;21.590;2022-11-14T08:28:40;31.50;;;24.30;;
51525;SDS011;37611;51.794;21.590;2022-11-14T08:32:42;21.70;;;13.40;;
51525;SDS011;37611;51.794;21.590;2022-11-14T08:36:44;27.00;;;18.50;;
51525;SDS011;37611;51.794;21.590;2022-11-14T08:40:45;26.50;;;17.20;;
51525;SDS011;37611;51.794;21.590;2022-11-14T08:44:47;29.40;;;19.20;;
51525;SDS011;37611;51.794;21.590;2022-11-14T08:48:49;31.00;;;18.40;;
51525;SDS011;37611;51.794;21.590;2022-11-14T08:52:51;35.40;;;23.10;;
51525;SDS011;37611;51.794;21.590;2022-11-14T08:56:52;32.50;;;24.00;;
51525;SDS011;37611;51.794;21.590;2022-11-14T09:00:57;31.20;;;21.30;;
51525;SDS011;37611;51.794;21.590;2022-11-14T09:05:00;32.60;;;21.80;;
51525;SDS011;37611;51.794;21.590;2022-11-14T09:09:02;47.60;;;31.80;;
51525;SDS011;37611;51.794;21.590;2022-11-14T09:13:03;24.20;;;16.60;;
51525;SDS011;37611;51.794;21.590;2022-11-14T09:17:05;47.80;;;36.50;;
51525;SDS011;37611;51.794;21.590;2022-11-14T09:21:07;43.50;;;38.00;;
51525;SDS011;37611;51.794;21.590;2022-11-14T09:25:10;15.70;;;13.80;;
51525;SDS011;37611;51.794;21.590;2022-11-14T09:29:13;14.40;;;10.10;;
51525;SDS011;37611;51.794;21.590;2022-11-14T09:33:14;12.20;;;8.40;;
51525;SDS011;37611;51.794;21.590;2022-11-14T09:37:17;14.50;;;10.80;;
51525;SDS011;37611;51.794;21.590;2022-11-14T09:45:43;7.90;;;6.50;;
51525;SDS011;37611;51.794;21.590;2022-11-14T09:49:51;7.40;;;6.00;;
51525;SDS011;37611;51.794;21.590;2022-11-14T09:54:05;13.30;;;9.30;;
51525;SDS011;37611;51.794;21.590;2022-11-14T09:58:23;14.10;;;11.70;;
51525;SDS011;37611;51.794;21.590;2022-11-14T10:06:58;22.50;;;17.00;;
51525;SDS011;37611;51.794;21.590;2022-11-14T10:11:08;24.90;;;18.40;;
51525;SDS011;37611;51.794;21.590;2022-11-14T10:15:16;26.10;;;19.30;;
51525;SDS011;37611;51.794;21.590;2022-11-14T10:28:29;33.90;;;24.50;;
51525;SDS011;37611;51.794;21.590;2022-11-14T10:41:02;36.00;;;21.40;;
51525;SDS011;37611;51.794;21.590;2022-11-14T10:45:07;39.00;;;22.70;;
51525;SDS011;37611;51.794;21.590;2022-11-14T10:49:18;38.50;;;23.40;;
51525;SDS011;37611;51.794;21.590;2022-11-14T10:53:44;36.40;;;22.80;;
51525;SDS011;37611;51.794;21.590;2022-11-14T10:57:44;30.60;;;20.20;;
51525;SDS011;37611;51.794;21.590;2022-11-14T11:05:51;26.60;;;16.70;;
51525;SDS011;37611;51.794;21.590;2022-11-14T11:09:58;27.70;;;18.40;;
51525;SDS011;37611;51.794;21.590;2022-11-14T11:14:19;29.60;;;19.20;;
51525;SDS011;37611;51.794;21.590;2022-11-14T11:18:26;26.30;;;19.60;;
51525;SDS011;37611;51.794;21.590;2022-11-14T11:22:36;25.70;;;18.10;;
51525;SDS011;37611;51.794;21.590;2022-11-14T11:26:39;31.40;;;22.30;;
51525;SDS011;37611;51.794;21.590;2022-11-14T11:30:56;31.80;;;21.40;;
51525;SDS011;37611;51.794;21.590;2022-11-14T11:35:01;37.20;;;27.30;;
51525;SDS011;37611;51.794;21.590;2022-11-14T11:39:04;39.20;;;27.00;;
51525;SDS011;37611;51.794;21.590;2022-11-14T11:47:39;35.70;;;27.40;;
51525;SDS011;37611;51.794;21.590;2022-11-14T11:51:44;40.20;;;27.50;;
51525;SDS011;37611;51.794;21.590;2022-11-14T11:55:48;49.40;;;33.50;;
51525;SDS011;37611;51.794;21.590;2022-11-14T11:59:58;45.70;;;30.70;;
51525;SDS011;37611;51.794;21.590;2022-11-14T12:04:22;48.00;;;32.00;;
51525;SDS011;37611;51.794;21.590;2022-11-14T12:08:29;44.80;;;31.60;;
51525;SDS011;37611;51.794;21.590;2022-11-14T12:21:26;39.20;;;30.00;;
51525;SDS011;37611;51.794;21.590;2022-11-14T12:29:55;34.50;;;26.70;;
51525;SDS011;37611;51.794;21.590;2022-11-14T12:34:03;40.80;;;30.30;;
51525;SDS011;37611;51.794;21.590;2022-11-14T12:38:16;35.20;;;28.40;;
51525;SDS011;37611;51.794;21.590;2022-11-14T12:42:19;34.40;;;26.70;;
51525;SDS011;37611;51.794;21.590;2022-11-14T12:46:22;34.70;;;27.40;;
51525;SDS011;37611;51.794;21.590;2022-11-14T12:50:39;36.10;;;27.30;;
51525;SDS011;37611;51.794;21.590;2022-11-14T12:54:46;38.50;;;29.10;;
51525;SDS011;37611;51.794;21.590;2022-11-14T13:12:45;28.70;;;23.60;;
51525;SDS011;37611;51.794;21.590;2022-11-14T13:16:53;25.30;;;21.60;;
51525;SDS011;37611;51.794;21.590;2022-11-14T13:21:29;27.10;;;21.60;;
51525;SDS011;37611;51.794;21.590;2022-11-14T13:25:46;24.10;;;19.40;;
51525;SDS011;37611;51.794;21.590;2022-11-14T13:29:48;29.10;;;24.10;;
51525;SDS011;37611;51.794;21.590;2022-11-14T13:33:56;30.90;;;25.70;;
51525;SDS011;37611;51.794;21.590;2022-11-14T13:43:12;33.90;;;27.10;;
51525;SDS011;37611;51.794;21.590;2022-11-14T13:51:29;35.40;;;28.40;;
51525;SDS011;37611;51.794;21.590;2022-11-14T14:08:46;29.20;;;23.80;;
51525;SDS011;37611;51.794;21.590;2022-11-14T14:13:01;34.90;;;28.00;;
51525;SDS011;37611;51.794;21.590;2022-11-14T14:17:17;46.70;;;34.90;;
51525;SDS011;37611;51.794;21.590;2022-11-14T14:30:24;40.40;;;32.90;;
51525;SDS011;37611;51.794;21.590;2022-11-14T14:34:27;51.00;;;38.60;;
51525;SDS011;37611;51.794;21.590;2022-11-14T14:38:32;41.10;;;29.90;;
51525;SDS011;37611;51.794;21.590;2022-11-14T14:42:39;33.40;;;25.20;;
51525;SDS011;37611;51.794;21.590;2022-11-14T14:46:46;39.90;;;28.60;;
51525;SDS011;37611;51.794;21.590;2022-11-14T14:50:49;50.80;;;31.10;;
51525;SDS011;37611;51.794;21.590;2022-11-14T14:54:53;37.50;;;26.20;;
51525;SDS011;37611;51.794;21.590;2022-11-14T14:58:56;45.80;;;30.90;;
51525;SDS011;37611;51.794;21.590;2022-11-14T15:02:57;44.10;;;29.10;;
51525;SDS011;37611;51.794;21.590;2022-11-14T15:06:59;33.40;;;24.10;;
51525;SDS011;37611;51.794;21.590;2022-11-14T15:11:01;26.20;;;22.60;;
51525;SDS011;37611;51.794;21.590;2022-11-14T15:15:04;30.30;;;22.50;;
51525;SDS011;37611;51.794;21.590;2022-11-14T15:19:13;28.20;;;22.40;;
51525;SDS011;37611;51.794;21.590;2022-11-14T15:23:19;33.40;;;26.50;;
51525;SDS011;37611;51.794;21.590;2022-11-14T15:27:21;31.60;;;23.00;;
51525;SDS011;37611;51.794;21.590;2022-11-14T15:31:23;26.50;;;20.40;;
51525;SDS011;37611;51.794;21.590;2022-11-14T15:35:26;36.10;;;24.50;;
51525;SDS011;37611;51.794;21.590;2022-11-14T15:39:30;32.00;;;21.50;;
51525;SDS011;37611;51.794;21.590;2022-11-14T15:47:40;53.50;;;38.40;;
51525;SDS011;37611;51.794;21.590;2022-11-14T15:55:46;78.20;;;51.30;;
51525;SDS011;37611;51.794;21.590;2022-11-14T15:59:48;61.80;;;44.30;;
51525;SDS011;37611;51.794;21.590;2022-11-14T16:03:49;64.90;;;45.50;;
51525;SDS011;37611;51.794;21.590;2022-11-14T16:07:52;51.20;;;37.70;;
51525;SDS011;37611;51.794;21.590;2022-11-14T16:11:53;54.30;;;38.60;;
51525;SDS011;37611;51.794;21.590;2022-11-14T16:15:55;49.30;;;33.10;;
51525;SDS011;37611;51.794;21.590;2022-11-14T16:19:57;32.90;;;23.50;;
51525;SDS011;37611;51.794;21.590;2022-11-14T16:23:59;30.00;;;25.30;;
51525;SDS011;37611;51.794;21.590;2022-11-14T16:28:01;65.00;;;58.80;;
51525;SDS011;37611;51.794;21.590;2022-11-14T16:32:03;31.90;;;27.70;;
51525;SDS011;37611;51.794;21.590;2022-11-14T16:36:05;32.20;;;26.00;;
51525;SDS011;37611;51.794;21.590;2022-11-14T16:40:12;34.00;;;29.30;;
51525;SDS011;37611;51.794;21.590;2022-11-14T16:44:16;45.80;;;34.50;;
51525;SDS011;37611;51.794;21.590;2022-11-14T16:48:18;45.00;;;35.20;;
51525;SDS011;37611;51.794;21.590;2022-11-14T16:52:20;58.30;;;39.60;;
51525;SDS011;37611;51.794;21.590;2022-11-14T16:56:22;37.00;;;28.80;;
51525;SDS011;37611;51.794;21.590;2022-11-14T17:00:24;41.60;;;31.30;;
51525;SDS011;37611;51.794;21.590;2022-11-14T17:04:25;48.80;;;35.70;;
51525;SDS011;37611;51.794;21.590;2022-11-14T17:08:27;42.40;;;33.10;;
51525;SDS011;37611;51.794;21.590;2022-11-14T17:12:29;49.10;;;37.60;;
51525;SDS011;37611;51.794;21.590;2022-11-14T17:16:32;69.00;;;50.20;;
51525;SDS011;37611;51.794;21.590;2022-11-14T17:20:35;52.20;;;40.70;;
51525;SDS011;37611;51.794;21.590;2022-11-14T17:24:38;43.90;;;34.10;;
51525;SDS011;37611;51.794;21.590;2022-11-14T17:28:41;48.60;;;34.10;;
51525;SDS011;37611;51.794;21.590;2022-11-14T17:32:43;47.20;;;35.30;;
51525;SDS011;37611;51.794;21.590;2022-11-14T17:36:45;50.20;;;32.80;;
51525;SDS011;37611;51.794;21.590;2022-11-14T17:40:47;74.00;;;53.80;;
51525;SDS011;37611;51.794;21.590;2022-11-14T17:44:48;73.30;;;49.80;;
51525;SDS011;37611;51.794;21.590;2022-11-14T17:48:50;179.40;;;95.50;;
51525;SDS011;37611;51.794;21.590;2022-11-14T17:52:53;81.30;;;53.10;;
51525;SDS011;37611;51.794;21.590;2022-11-14T17:56:55;52.00;;;32.20;;
51525;SDS011;37611;51.794;21.590;2022-11-14T18:00:58;66.50;;;45.10;;
51525;SDS011;37611;51.794;21.590;2022-11-14T18:05:00;90.40;;;59.30;;
51525;SDS011;37611;51.794;21.590;2022-11-14T18:09:02;77.10;;;48.40;;
51525;SDS011;37611;51.794;21.590;2022-11-14T18:13:05;63.70;;;39.10;;
51525;SDS011;37611;51.794;21.590;2022-11-14T18:17:07;45.10;;;31.40;;
51525;SDS011;37611;51.794;21.590;2022-11-14T18:21:09;43.10;;;29.50;;
51525;SDS011;37611;51.794;21.590;2022-11-14T18:25:12;36.80;;;26.90;;
51525;SDS011;37611;51.794;21.590;2022-11-14T18:29:14;51.90;;;33.70;;
51525;SDS011;37611;51.794;21.590;2022-11-14T18:33:16;71.00;;;47.60;;
51525;SDS011;37611;51.794;21.590;2022-11-14T18:37:17;69.40;;;48.80;;
51525;SDS011;37611;51.794;21.590;2022-11-14T18:41:19;101.20;;;58.50;;
51525;SDS011;37611;51.794;21.590;2022-11-14T18:45:22;83.20;;;53.40;;
51525;SDS011;37611;51.794;21.590;2022-11-14T18:49:24;64.20;;;43.80;;
51525;SDS011;37611;51.794;21.590;2022-11-14T18:53:29;64.60;;;46.20;;
51525;SDS011;37611;51.794;21.590;2022-11-14T18:57:34;74.70;;;43.00;;
51525;SDS011;37611;51.794;21.590;2022-11-14T19:01:36;70.00;;;38.30;;
51525;SDS011;37611;51.794;21.590;2022-11-14T19:05:38;54.10;;;38.20;;
51525;SDS011;37611;51.794;21.590;2022-11-14T19:09:39;48.70;;;33.80;;
51525;SDS011;37611;51.794;21.590;2022-11-14T19:13:41;54.20;;;38.40;;
51525;SDS011;37611;51.794;21.590;2022-11-14T19:17:43;56.30;;;35.90;;
51525;SDS011;37611;51.794;21.590;2022-11-14T19:21:48;61.60;;;40.30;;
51525;SDS011;37611;51.794;21.590;2022-11-14T19:25:51;70.00;;;43.40;;
51525;SDS011;37611;51.794;21.590;2022-11-14T19:29:57;56.30;;;39.70;;
51525;SDS011;37611;51.794;21.590;2022-11-14T19:33:59;70.60;;;52.30;;
51525;SDS011;37611;51.794;21.590;2022-11-14T19:38:01;46.50;;;33.00;;
51525;SDS011;37611;51.794;21.590;2022-11-14T19:42:03;50.80;;;34.20;;
51525;SDS011;37611;51.794;21.590;2022-11-14T19:46:05;37.70;;;30.20;;
51525;SDS011;37611;51.794;21.590;2022-11-14T19:50:07;40.40;;;28.80;;
51525;SDS011;37611;51.794;21.590;2022-11-14T19:54:10;45.40;;;36.50;;
51525;SDS011;37611;51.794;21.590;2022-11-14T19:58:12;40.10;;;31.10;;
51525;SDS011;37611;51.794;21.590;2022-11-14T20:02:14;45.60;;;33.60;;
51525;SDS011;37611;51.794;21.590;2022-11-14T20:06:17;40.90;;;30.00;;
51525;SDS011;37611;51.794;21.590;2022-11-14T20:10:26;49.30;;;34.70;;
51525;SDS011;37611;51.794;21.590;2022-11-14T20:14:28;41.70;;;29.70;;
51525;SDS011;37611;51.794;21.590;2022-11-14T20:18:29;52.70;;;37.80;;
51525;SDS011;37611;51.794;21.590;2022-11-14T20:22:31;64.20;;;42.30;;
51525;SDS011;37611;51.794;21.590;2022-11-14T20:26:33;46.40;;;36.70;;
51525;SDS011;37611;51.794;21.590;2022-11-14T20:30:38;47.60;;;37.10;;
51525;SDS011;37611;51.794;21.590;2022-11-14T20:34:40;46.50;;;31.30;;
51525;SDS011;37611;51.794;21.590;2022-11-14T20:38:42;30.70;;;25.30;;
51525;SDS011;37611;51.794;21.590;2022-11-14T20:42:47;34.60;;;25.90;;
51525;SDS011;37611;51.794;21.590;2022-11-14T20:46:49;27.70;;;22.30;;
51525;SDS011;37611;51.794;21.590;2022-11-14T20:50:51;24.40;;;20.10;;
51525;SDS011;37611;51.794;21.590;2022-11-14T20:54:53;25.50;;;21.20;;
51525;SDS011;37611;51.794;21.590;2022-11-14T20:58:55;31.20;;;23.50;;
51525;SDS011;37611;51.794;21.590;2022-11-14T21:02:56;27.40;;;21.30;;
51525;SDS011;37611;51.794;21.590;2022-11-14T21:06:58;31.50;;;24.60;;
51525;SDS011;37611;51.794;21.590;2022-11-14T21:11:04;28.20;;;21.80;;
51525;SDS011;37611;51.794;21.590;2022-11-14T21:15:08;31.90;;;23.20;;
51525;SDS011;37611;51.794;21.590;2022-11-14T21:19:10;29.10;;;21.90;;
51525;SDS011;37611;51.794;21.590;2022-11-14T21:23:12;25.30;;;19.90;;
51525;SDS011;37611;51.794;21.590;2022-11-14T21:27:14;25.10;;;19.60;;
51525;SDS011;37611;51.794;21.590;2022-11-14T21:31:20;28.30;;;21.00;;
51525;SDS011;37611;51.794;21.590;2022-11-14T21:35:30;25.00;;;19.60;;
51525;SDS011;37611;51.794;21.590;2022-11-14T21:39:33;22.30;;;17.50;;
51525;SDS011;37611;51.794;21.590;2022-11-14T21:43:35;24.20;;;19.70;;
51525;SDS011;37611;51.794;21.590;2022-11-14T21:47:37;22.70;;;17.50;;
51525;SDS011;37611;51.794;21.590;2022-11-14T21:51:39;25.20;;;20.00;;
51525;SDS011;37611;51.794;21.590;2022-11-14T21:55:41;25.60;;;21.50;;
51525;SDS011;37611;51.794;21.590;2022-11-14T21:59:44;36.30;;;29.20;;
51525;SDS011;37611;51.794;21.590;2022-11-14T22:03:46;25.30;;;19.40;;
51525;SDS011;37611;51.794;21.590;2022-11-14T22:08:06;20.80;;;17.60;;
51525;SDS011;37611;51.794;21.590;2022-11-14T22:12:07;25.20;;;18.40;;
51525;SDS011;37611;51.794;21.590;2022-11-14T22:16:09;25.20;;;17.80;;
51525;SDS011;37611;51.794;21.590;2022-11-14T22:20:17;27.40;;;20.60;;
51525;SDS011;37611;51.794;21.590;2022-11-14T22:24:19;29.80;;;22.70;;
51525;SDS011;37611;51.794;21.590;2022-11-14T22:28:22;23.30;;;17.80;;
51525;SDS011;37611;51.794;21.590;2022-11-14T22:32:25;25.40;;;20.40;;
51525;SDS011;37611;51.794;21.590;2022-11-14T22:36:26;24.40;;;19.70;;
51525;SDS011;37611;51.794;21.590;2022-11-14T22:40:31;25.60;;;19.60;;
51525;SDS011;37611;51.794;21.590;2022-11-14T22:44:34;29.30;;;26.00;;
51525;SDS011;37611;51.794;21.590;2022-11-14T22:48:36;27.00;;;20.80;;
51525;SDS011;37611;51.794;21.590;2022-11-14T22:52:38;27.20;;;20.90;;
51525;SDS011;37611;51.794;21.590;2022-11-14T22:56:40;24.90;;;20.60;;
51525;SDS011;37611;51.794;21.590;2022-11-14T23:00:42;23.50;;;20.60;;
51525;SDS011;37611;51.794;21.590;2022-11-14T23:04:43;34.80;;;24.40;;
51525;SDS011;37611;51.794;21.590;2022-11-14T23:08:45;26.30;;;21.60;;
51525;SDS011;37611;51.794;21.590;2022-11-14T23:12:47;31.30;;;24.30;;
51525;SDS011;37611;51.794;21.590;2022-11-14T23:16:49;30.10;;;22.70;;
51525;SDS011;37611;51.794;21.590;2022-11-14T23:20:50;31.40;;;24.40;;
51525;SDS011;37611;51.794;21.590;2022-11-14T23:24:52;32.80;;;26.10;;
51525;SDS011;37611;51.794;21.590;2022-11-14T23:28:54;37.00;;;28.40;;
51525;SDS011;37611;51.794;21.590;2022-11-14T23:32:56;35.90;;;28.00;;
51525;SDS011;37611;51.794;21.590;2022-11-14T23:36:58;34.90;;;27.50;;
51525;SDS011;37611;51.794;21.590;2022-11-14T23:41:00;35.90;;;26.60;;
51525;SDS011;37611;51.794;21.590;2022-11-14T23:45:02;39.40;;;27.60;;
51525;SDS011;37611;51.794;21.590;2022-11-14T23:49:04;45.20;;;32.30;;
51525;SDS011;37611;51.794;21.590;2022-11-14T23:53:05;42.70;;;31.60;;
51525;SDS011;37611;51.794;21.590;2022-11-14T23:57:07;39.70;;;30.40;;
